NCAR-RAP Real-Time Weather Data

Output produced by METARs form (23 June 2018  19:34 UTC)
found at http://weather.rap.ucar.edu/surface/
 
RJNT 231200Z VRB02KT 9999 FEW100 BKN120 22/15 Q1005
RJNT 231100Z 20003KT 160V240 9999 FEW100 BKN130 21/17 Q1004
RJNT 231000Z 21004KT 9999 FEW008 BKN110 21/16 Q1004
RJNT 230900Z 20004KT 9999 FEW008 BKN110 22/17 Q1003
RJNT 230800Z 19005KT 150V220 9999 -RA FEW008 SCT050 BKN110 22/18 Q1002
RJNT 230700Z 13003KT 080V210 9999 -RA FEW008 SCT110 BKN140 23/18 Q1003
RJNT 230600Z VRB01KT 9999 -RA FEW008 SCT080 BKN120 25/16 Q1003
RJNT 230500Z 31003KT 270V340 9999 FEW040 SCT110 BKN160 26/15 Q1003
RJNT 230400Z 36007KT 9999 FEW040 BKN150 25/16 Q1002
RJNT 230300Z 19004KT 160V220 CAVOK 27/11 Q1003
RJNT 230200Z 17005KT 090V220 CAVOK 26/13 Q1003
RJNT 230100Z 16004KT 080V240 CAVOK 25/13 Q1005
RJNT 230000Z 17005KT 110V210 CAVOK 23/13 Q1005
RJNT 222300Z 16006KT 100V200 CAVOK 22/13 Q1006
RJNT 222200Z 18006KT 130V210 CAVOK 22/12 Q1007
RJNT 222110Z 16004KT 090V240 CAVOK 21/12 Q1007 RMK A2975
RJNT 221200Z 17004KT 9999 FEW080 BKN/// 21/15 Q1010
RJNT 221100Z 13003KT 090V170 9999 FEW080 BKN/// 23/15 Q1009
RJNT 221000Z 31004KT 270V330 9999 FEW080 BKN/// 26/11 Q1009
RJNT 220900Z 31004KT 270V350 9999 FEW040 SCT/// 27/10 Q1008
RJNT 220800Z 28006KT 9999 FEW040 SCT/// 28/10 Q1008
RJNT 220700Z 26005KT 200V300 9999 FEW040 BKN/// 28/10 Q1008
RJNT 220600Z 29006KT 210V340 9999 FEW040 BKN/// 29/11 Q1008
RJNT 220500Z 26007KT 190V320 9999 FEW040 BKN/// 29/12 Q1008
RJNT 220400Z 28007KT 230V340 9999 FEW040 SCT/// 29/12 Q1008
RJNT 220300Z 29008KT 240V020 9999 FEW040 SCT/// 28/11 Q1009
RJNT 220200Z 29008KT 240V330 9999 FEW040 27/10 Q1009
RJNT 220100Z 29008KT 250V330 9999 FEW040 SCT/// 27/10 Q1010
RJNT 220000Z 19004KT 110V240 9999 FEW040 SCT/// 26/08 Q1009
RJNT 212300Z 19005KT 150V240 9999 FEW040 SCT/// 23/11 Q1009
RJNT 212200Z 19005KT 150V220 CAVOK 21/13 Q1010
RJNT 212110Z 20003KT 150V230 9999 FEW050 SCT/// 19/12 Q1009 RMK 1SC050 A2982
RJNT 211200Z VRB02KT 9999 FEW040 21/18 Q1007
RJNT 211100Z 23003KT 150V300 9999 FEW040 BKN/// 22/18 Q1007
RJNT 211000Z 26005KT 210V300 9999 FEW030 SCT/// 22/18 Q1006
RJNT 210900Z 28009KT 230V310 9999 FEW030 SCT060 24/19 Q1005
RJNT 210800Z 27011KT 240V300 9999 FEW030 SCT080 BKN/// 25/17 Q1004